sensor_id;sensor_type;location;lat;lon;timestamp;P1;durP1;ratioP1;P2;durP2;ratioP2
50161;SDS011;36061;48.116;11.612;2022-09-21T00:00:21;5.00;;;2.47;;
50161;SDS011;36061;48.116;11.612;2022-09-21T00:02:48;4.27;;;2.43;;
50161;SDS011;36061;48.116;11.612;2022-09-21T00:05:13;4.17;;;2.30;;
50161;SDS011;36061;48.116;11.612;2022-09-21T00:07:39;5.00;;;2.30;;
50161;SDS011;36061;48.116;11.612;2022-09-21T00:10:05;3.27;;;2.10;;
50161;SDS011;36061;48.116;11.612;2022-09-21T00:12:31;2.47;;;1.90;;
50161;SDS011;36061;48.116;11.612;2022-09-21T00:14:57;3.40;;;2.47;;
50161;SDS011;36061;48.116;11.612;2022-09-21T00:17:23;3.73;;;2.50;;
50161;SDS011;36061;48.116;11.612;2022-09-21T00:19:49;3.13;;;2.10;;
50161;SDS011;36061;48.116;11.612;2022-09-21T00:22:14;2.70;;;1.60;;
50161;SDS011;36061;48.116;11.612;2022-09-21T00:24:40;3.93;;;2.17;;
50161;SDS011;36061;48.116;11.612;2022-09-21T00:27:06;2.77;;;1.93;;
50161;SDS011;36061;48.116;11.612;2022-09-21T00:29:31;5.13;;;2.10;;
50161;SDS011;36061;48.116;11.612;2022-09-21T00:31:57;3.83;;;2.77;;
50161;SDS011;36061;48.116;11.612;2022-09-21T00:34:23;3.53;;;2.30;;
50161;SDS011;36061;48.116;11.612;2022-09-21T00:36:49;5.47;;;2.00;;
50161;SDS011;36061;48.116;11.612;2022-09-21T00:39:14;2.70;;;2.10;;
50161;SDS011;36061;48.116;11.612;2022-09-21T00:41:40;3.53;;;2.20;;
50161;SDS011;36061;48.116;11.612;2022-09-21T00:46:48;5.80;;;2.27;;
50161;SDS011;36061;48.116;11.612;2022-09-21T00:49:17;4.03;;;2.17;;
50161;SDS011;36061;48.116;11.612;2022-09-21T00:51:45;3.67;;;2.20;;
50161;SDS011;36061;48.116;11.612;2022-09-21T00:54:13;2.67;;;2.20;;
50161;SDS011;36061;48.116;11.612;2022-09-21T00:56:44;3.27;;;2.07;;
50161;SDS011;36061;48.116;11.612;2022-09-21T00:59:10;3.87;;;2.20;;
50161;SDS011;36061;48.116;11.612;2022-09-21T01:01:38;4.77;;;1.90;;
50161;SDS011;36061;48.116;11.612;2022-09-21T01:04:05;3.93;;;2.27;;
50161;SDS011;36061;48.116;11.612;2022-09-21T01:06:32;4.43;;;1.90;;
50161;SDS011;36061;48.116;11.612;2022-09-21T01:09:01;3.37;;;2.20;;
50161;SDS011;36061;48.116;11.612;2022-09-21T01:11:38;4.40;;;2.27;;
50161;SDS011;36061;48.116;11.612;2022-09-21T01:17:41;2.70;;;1.80;;
50161;SDS011;36061;48.116;11.612;2022-09-21T01:25:29;2.33;;;1.90;;
50161;SDS011;36061;48.116;11.612;2022-09-21T01:28:22;4.60;;;2.50;;
50161;SDS011;36061;48.116;11.612;2022-09-21T01:31:02;4.63;;;2.20;;
50161;SDS011;36061;48.116;11.612;2022-09-21T01:33:50;4.17;;;2.20;;
50161;SDS011;36061;48.116;11.612;2022-09-21T01:36:21;9.93;;;2.03;;
50161;SDS011;36061;48.116;11.612;2022-09-21T01:38:53;3.33;;;1.90;;
50161;SDS011;36061;48.116;11.612;2022-09-21T01:41:23;3.60;;;1.67;;
50161;SDS011;36061;48.116;11.612;2022-09-21T01:43:54;2.43;;;1.67;;
50161;SDS011;36061;48.116;11.612;2022-09-21T01:46:26;5.30;;;2.43;;
50161;SDS011;36061;48.116;11.612;2022-09-21T01:48:55;2.57;;;1.70;;
50161;SDS011;36061;48.116;11.612;2022-09-21T01:51:25;5.83;;;1.93;;
50161;SDS011;36061;48.116;11.612;2022-09-21T01:53:54;2.07;;;1.60;;
50161;SDS011;36061;48.116;11.612;2022-09-21T01:58:54;1.93;;;1.60;;
50161;SDS011;36061;48.116;11.612;2022-09-21T02:01:43;4.37;;;1.63;;
50161;SDS011;36061;48.116;11.612;2022-09-21T02:04:13;2.73;;;1.80;;
50161;SDS011;36061;48.116;11.612;2022-09-21T02:06:40;3.27;;;1.80;;
50161;SDS011;36061;48.116;11.612;2022-09-21T02:09:08;2.33;;;1.73;;
50161;SDS011;36061;48.116;11.612;2022-09-21T02:11:35;3.13;;;1.80;;
50161;SDS011;36061;48.116;11.612;2022-09-21T02:14:03;3.10;;;1.50;;
50161;SDS011;36061;48.116;11.612;2022-09-21T02:16:37;3.03;;;1.40;;
50161;SDS011;36061;48.116;11.612;2022-09-21T02:31:20;4.07;;;1.93;;
50161;SDS011;36061;48.116;11.612;2022-09-21T02:34:03;2.80;;;1.70;;
50161;SDS011;36061;48.116;11.612;2022-09-21T02:39:18;1.67;;;1.53;;
50161;SDS011;36061;48.116;11.612;2022-09-21T02:44:51;1.93;;;1.50;;
50161;SDS011;36061;48.116;11.612;2022-09-21T02:50:00;1.63;;;1.50;;
50161;SDS011;36061;48.116;11.612;2022-09-21T02:52:30;3.13;;;1.67;;
50161;SDS011;36061;48.116;11.612;2022-09-21T02:54:58;4.00;;;1.70;;
50161;SDS011;36061;48.116;11.612;2022-09-21T02:57:25;1.70;;;1.60;;
50161;SDS011;36061;48.116;11.612;2022-09-21T02:59:52;4.40;;;1.40;;
50161;SDS011;36061;48.116;11.612;2022-09-21T03:02:18;2.37;;;1.57;;
50161;SDS011;36061;48.116;11.612;2022-09-21T03:04:45;1.83;;;1.70;;
50161;SDS011;36061;48.116;11.612;2022-09-21T03:07:13;2.93;;;1.77;;
50161;SDS011;36061;48.116;11.612;2022-09-21T03:09:39;3.87;;;1.97;;
50161;SDS011;36061;48.116;11.612;2022-09-21T03:12:05;4.50;;;1.93;;
50161;SDS011;36061;48.116;11.612;2022-09-21T03:14:31;2.60;;;1.70;;
50161;SDS011;36061;48.116;11.612;2022-09-21T03:16:57;4.37;;;1.70;;
50161;SDS011;36061;48.116;11.612;2022-09-21T03:19:24;4.17;;;1.50;;
50161;SDS011;36061;48.116;11.612;2022-09-21T03:21:51;4.10;;;2.03;;
50161;SDS011;36061;48.116;11.612;2022-09-21T03:24:18;3.23;;;1.73;;
50161;SDS011;36061;48.116;11.612;2022-09-21T03:27:04;1.33;;;1.23;;
50161;SDS011;36061;48.116;11.612;2022-09-21T03:29:30;1.77;;;1.60;;
50161;SDS011;36061;48.116;11.612;2022-09-21T03:31:57;4.70;;;2.20;;
50161;SDS011;36061;48.116;11.612;2022-09-21T03:34:22;2.57;;;2.00;;
50161;SDS011;36061;48.116;11.612;2022-09-21T03:36:48;2.20;;;1.53;;
50161;SDS011;36061;48.116;11.612;2022-09-21T03:39:14;3.20;;;1.57;;
50161;SDS011;36061;48.116;11.612;2022-09-21T03:41:40;2.33;;;1.60;;
50161;SDS011;36061;48.116;11.612;2022-09-21T03:44:05;3.03;;;1.77;;
50161;SDS011;36061;48.116;11.612;2022-09-21T03:46:31;2.13;;;1.57;;
50161;SDS011;36061;48.116;11.612;2022-09-21T03:48:59;1.97;;;1.60;;
50161;SDS011;36061;48.116;11.612;2022-09-21T03:51:27;5.00;;;1.40;;
50161;SDS011;36061;48.116;11.612;2022-09-21T03:53:55;1.97;;;1.50;;
50161;SDS011;36061;48.116;11.612;2022-09-21T03:56:22;1.57;;;1.23;;
50161;SDS011;36061;48.116;11.612;2022-09-21T03:58:48;3.73;;;1.50;;
50161;SDS011;36061;48.116;11.612;2022-09-21T04:01:14;2.87;;;1.50;;
50161;SDS011;36061;48.116;11.612;2022-09-21T04:03:39;3.10;;;1.60;;
50161;SDS011;36061;48.116;11.612;2022-09-21T04:06:09;2.43;;;1.30;;
50161;SDS011;36061;48.116;11.612;2022-09-21T04:08:36;3.03;;;1.60;;
50161;SDS011;36061;48.116;11.612;2022-09-21T04:11:07;3.47;;;1.63;;
50161;SDS011;36061;48.116;11.612;2022-09-21T04:13:41;3.07;;;1.60;;
50161;SDS011;36061;48.116;11.612;2022-09-21T04:16:07;2.67;;;1.70;;
50161;SDS011;36061;48.116;11.612;2022-09-21T04:18:35;4.00;;;1.70;;
50161;SDS011;36061;48.116;11.612;2022-09-21T04:21:03;3.90;;;1.87;;
50161;SDS011;36061;48.116;11.612;2022-09-21T04:23:30;4.07;;;1.70;;
50161;SDS011;36061;48.116;11.612;2022-09-21T04:25:57;4.60;;;1.80;;
50161;SDS011;36061;48.116;11.612;2022-09-21T04:28:24;4.10;;;1.93;;
50161;SDS011;36061;48.116;11.612;2022-09-21T04:30:52;2.63;;;1.93;;
50161;SDS011;36061;48.116;11.612;2022-09-21T04:33:19;2.70;;;1.90;;
50161;SDS011;36061;48.116;11.612;2022-09-21T04:35:52;7.17;;;2.33;;
50161;SDS011;36061;48.116;11.612;2022-09-21T04:38:19;1.53;;;1.40;;
50161;SDS011;36061;48.116;11.612;2022-09-21T04:40:52;3.17;;;2.27;;
50161;SDS011;36061;48.116;11.612;2022-09-21T04:43:19;6.70;;;2.27;;
50161;SDS011;36061;48.116;11.612;2022-09-21T04:45:44;3.30;;;2.40;;
50161;SDS011;36061;48.116;11.612;2022-09-21T04:48:10;2.33;;;1.97;;
50161;SDS011;36061;48.116;11.612;2022-09-21T04:50:36;2.50;;;2.20;;
50161;SDS011;36061;48.116;11.612;2022-09-21T04:53:06;3.57;;;1.93;;
50161;SDS011;36061;48.116;11.612;2022-09-21T04:55:32;4.50;;;1.60;;
50161;SDS011;36061;48.116;11.612;2022-09-21T04:57:58;2.83;;;1.93;;
50161;SDS011;36061;48.116;11.612;2022-09-21T05:00:23;3.00;;;2.10;;
50161;SDS011;36061;48.116;11.612;2022-09-21T05:02:50;3.50;;;2.10;;
50161;SDS011;36061;48.116;11.612;2022-09-21T05:05:16;3.60;;;1.93;;
50161;SDS011;36061;48.116;11.612;2022-09-21T05:07:42;2.10;;;1.87;;
50161;SDS011;36061;48.116;11.612;2022-09-21T05:10:08;2.57;;;1.63;;
50161;SDS011;36061;48.116;11.612;2022-09-21T05:12:35;3.97;;;2.00;;
50161;SDS011;36061;48.116;11.612;2022-09-21T05:15:01;2.80;;;1.77;;
50161;SDS011;36061;48.116;11.612;2022-09-21T05:17:26;2.13;;;1.83;;
50161;SDS011;36061;48.116;11.612;2022-09-21T05:19:52;3.73;;;2.10;;
50161;SDS011;36061;48.116;11.612;2022-09-21T05:22:19;3.63;;;2.30;;
50161;SDS011;36061;48.116;11.612;2022-09-21T05:24:45;2.53;;;1.90;;
50161;SDS011;36061;48.116;11.612;2022-09-21T05:27:10;6.77;;;2.07;;
50161;SDS011;36061;48.116;11.612;2022-09-21T05:29:37;3.13;;;2.20;;
50161;SDS011;36061;48.116;11.612;2022-09-21T05:39:59;4.20;;;3.80;;
50161;SDS011;36061;48.116;11.612;2022-09-21T05:42:25;4.00;;;3.43;;
50161;SDS011;36061;48.116;11.612;2022-09-21T05:44:51;6.93;;;3.13;;
50161;SDS011;36061;48.116;11.612;2022-09-21T05:50:19;3.57;;;2.70;;
50161;SDS011;36061;48.116;11.612;2022-09-21T05:58:09;4.63;;;2.53;;
50161;SDS011;36061;48.116;11.612;2022-09-21T06:00:48;6.20;;;3.10;;
50161;SDS011;36061;48.116;11.612;2022-09-21T06:05:52;6.73;;;3.03;;
50161;SDS011;36061;48.116;11.612;2022-09-21T06:08:18;4.43;;;3.50;;
50161;SDS011;36061;48.116;11.612;2022-09-21T06:10:43;5.83;;;3.43;;
50161;SDS011;36061;48.116;11.612;2022-09-21T06:13:09;8.53;;;3.30;;
50161;SDS011;36061;48.116;11.612;2022-09-21T06:15:35;3.97;;;2.40;;
50161;SDS011;36061;48.116;11.612;2022-09-21T06:18:05;7.43;;;2.80;;
50161;SDS011;36061;48.116;11.612;2022-09-21T06:20:32;6.03;;;2.83;;
50161;SDS011;36061;48.116;11.612;2022-09-21T06:23:06;3.50;;;2.43;;
50161;SDS011;36061;48.116;11.612;2022-09-21T06:25:33;8.73;;;3.30;;
50161;SDS011;36061;48.116;11.612;2022-09-21T06:28:33;20.60;;;3.77;;
50161;SDS011;36061;48.116;11.612;2022-09-21T06:30:52;6.83;;;2.87;;
50161;SDS011;36061;48.116;11.612;2022-09-21T06:33:20;7.00;;;2.60;;
50161;SDS011;36061;48.116;11.612;2022-09-21T06:35:51;5.13;;;2.93;;
50161;SDS011;36061;48.116;11.612;2022-09-21T06:38:23;8.90;;;3.17;;
50161;SDS011;36061;48.116;11.612;2022-09-21T06:40:50;10.23;;;3.20;;
50161;SDS011;36061;48.116;11.612;2022-09-21T06:43:17;7.10;;;2.90;;
50161;SDS011;36061;48.116;11.612;2022-09-21T06:45:43;4.50;;;2.77;;
50161;SDS011;36061;48.116;11.612;2022-09-21T06:48:17;5.20;;;2.80;;
50161;SDS011;36061;48.116;11.612;2022-09-21T06:50:43;5.93;;;2.63;;
50161;SDS011;36061;48.116;11.612;2022-09-21T06:53:09;3.23;;;2.83;;
50161;SDS011;36061;48.116;11.612;2022-09-21T06:55:34;10.97;;;4.43;;
50161;SDS011;36061;48.116;11.612;2022-09-21T06:58:00;6.03;;;2.90;;
50161;SDS011;36061;48.116;11.612;2022-09-21T07:00:27;7.23;;;3.73;;
50161;SDS011;36061;48.116;11.612;2022-09-21T07:02:53;7.33;;;2.67;;
50161;SDS011;36061;48.116;11.612;2022-09-21T07:05:19;4.80;;;2.87;;
50161;SDS011;36061;48.116;11.612;2022-09-21T07:07:45;5.40;;;2.43;;
50161;SDS011;36061;48.116;11.612;2022-09-21T07:10:10;4.77;;;3.30;;
50161;SDS011;36061;48.116;11.612;2022-09-21T07:12:36;5.33;;;2.57;;
50161;SDS011;36061;48.116;11.612;2022-09-21T07:15:03;2.40;;;2.00;;
50161;SDS011;36061;48.116;11.612;2022-09-21T07:17:33;4.13;;;2.60;;
50161;SDS011;36061;48.116;11.612;2022-09-21T07:20:01;2.40;;;1.87;;
50161;SDS011;36061;48.116;11.612;2022-09-21T07:22:28;2.97;;;2.13;;
50161;SDS011;36061;48.116;11.612;2022-09-21T07:24:55;4.47;;;2.40;;
50161;SDS011;36061;48.116;11.612;2022-09-21T07:27:22;5.90;;;2.53;;
50161;SDS011;36061;48.116;11.612;2022-09-21T07:29:48;6.60;;;2.03;;
50161;SDS011;36061;48.116;11.612;2022-09-21T07:32:14;3.03;;;2.10;;
50161;SDS011;36061;48.116;11.612;2022-09-21T07:34:40;3.83;;;2.00;;
50161;SDS011;36061;48.116;11.612;2022-09-21T07:37:06;6.87;;;2.40;;
50161;SDS011;36061;48.116;11.612;2022-09-21T07:39:32;3.50;;;1.90;;
50161;SDS011;36061;48.116;11.612;2022-09-21T07:41:59;3.20;;;2.10;;
50161;SDS011;36061;48.116;11.612;2022-09-21T07:44:25;4.70;;;1.83;;
50161;SDS011;36061;48.116;11.612;2022-09-21T07:46:51;2.40;;;1.33;;
50161;SDS011;36061;48.116;11.612;2022-09-21T07:49:17;5.77;;;2.00;;
50161;SDS011;36061;48.116;11.612;2022-09-21T07:51:43;5.67;;;1.67;;
50161;SDS011;36061;48.116;11.612;2022-09-21T07:54:09;3.07;;;1.60;;
50161;SDS011;36061;48.116;11.612;2022-09-21T07:56:35;1.67;;;1.20;;
50161;SDS011;36061;48.116;11.612;2022-09-21T07:59:02;2.10;;;1.20;;
50161;SDS011;36061;48.116;11.612;2022-09-21T08:01:32;1.60;;;1.30;;
50161;SDS011;36061;48.116;11.612;2022-09-21T08:04:02;1.67;;;1.23;;
50161;SDS011;36061;48.116;11.612;2022-09-21T08:06:30;2.73;;;1.70;;
50161;SDS011;36061;48.116;11.612;2022-09-21T08:09:00;2.17;;;1.23;;
50161;SDS011;36061;48.116;11.612;2022-09-21T08:11:27;3.63;;;1.40;;
50161;SDS011;36061;48.116;11.612;2022-09-21T08:13:55;3.33;;;1.30;;
50161;SDS011;36061;48.116;11.612;2022-09-21T08:16:22;6.13;;;1.30;;
50161;SDS011;36061;48.116;11.612;2022-09-21T08:18:49;5.90;;;1.37;;
50161;SDS011;36061;48.116;11.612;2022-09-21T08:21:15;1.73;;;1.13;;
50161;SDS011;36061;48.116;11.612;2022-09-21T08:23:42;3.00;;;1.70;;
50161;SDS011;36061;48.116;11.612;2022-09-21T08:26:09;1.87;;;1.20;;
50161;SDS011;36061;48.116;11.612;2022-09-21T08:28:42;2.57;;;1.40;;
50161;SDS011;36061;48.116;11.612;2022-09-21T08:31:16;1.93;;;1.30;;
50161;SDS011;36061;48.116;11.612;2022-09-21T08:33:43;5.13;;;1.40;;
50161;SDS011;36061;48.116;11.612;2022-09-21T08:36:10;2.60;;;1.63;;
50161;SDS011;36061;48.116;11.612;2022-09-21T08:38:36;1.90;;;1.20;;
50161;SDS011;36061;48.116;11.612;2022-09-21T08:41:13;1.90;;;1.00;;
50161;SDS011;36061;48.116;11.612;2022-09-21T08:43:43;0.80;;;0.80;;
50161;SDS011;36061;48.116;11.612;2022-09-21T08:46:20;1.77;;;1.00;;
50161;SDS011;36061;48.116;11.612;2022-09-21T08:48:49;1.33;;;0.97;;
50161;SDS011;36061;48.116;11.612;2022-09-21T08:51:21;1.67;;;1.07;;
50161;SDS011;36061;48.116;11.612;2022-09-21T08:54:02;1.87;;;0.93;;
50161;SDS011;36061;48.116;11.612;2022-09-21T08:56:36;0.93;;;0.80;;
50161;SDS011;36061;48.116;11.612;2022-09-21T08:59:02;0.70;;;0.70;;
50161;SDS011;36061;48.116;11.612;2022-09-21T09:01:49;2.63;;;1.00;;
50161;SDS011;36061;48.116;11.612;2022-09-21T09:04:29;1.20;;;1.10;;
50161;SDS011;36061;48.116;11.612;2022-09-21T09:07:18;5.90;;;2.20;;
50161;SDS011;36061;48.116;11.612;2022-09-21T09:12:46;0.77;;;0.77;;
50161;SDS011;36061;48.116;11.612;2022-09-21T09:18:33;0.70;;;0.70;;
50161;SDS011;36061;48.116;11.612;2022-09-21T09:21:15;2.50;;;1.00;;
50161;SDS011;36061;48.116;11.612;2022-09-21T09:23:46;1.10;;;1.00;;
50161;SDS011;36061;48.116;11.612;2022-09-21T09:26:37;1.03;;;0.90;;
50161;SDS011;36061;48.116;11.612;2022-09-21T09:31:53;1.17;;;0.93;;
50161;SDS011;36061;48.116;11.612;2022-09-21T09:34:30;2.30;;;1.03;;
50161;SDS011;36061;48.116;11.612;2022-09-21T09:37:12;2.20;;;1.13;;
50161;SDS011;36061;48.116;11.612;2022-09-21T09:39:40;2.37;;;0.93;;
50161;SDS011;36061;48.116;11.612;2022-09-21T09:45:02;1.87;;;0.63;;
50161;SDS011;36061;48.116;11.612;2022-09-21T09:50:28;1.73;;;0.90;;
50161;SDS011;36061;48.116;11.612;2022-09-21T09:53:02;1.03;;;0.60;;
50161;SDS011;36061;48.116;11.612;2022-09-21T09:55:53;0.90;;;0.60;;
50161;SDS011;36061;48.116;11.612;2022-09-21T10:00:53;0.80;;;0.67;;
50161;SDS011;36061;48.116;11.612;2022-09-21T10:03:25;0.77;;;0.70;;
50161;SDS011;36061;48.116;11.612;2022-09-21T10:05:51;3.70;;;0.70;;
50161;SDS011;36061;48.116;11.612;2022-09-21T10:08:28;1.53;;;0.70;;
50161;SDS011;36061;48.116;11.612;2022-09-21T10:11:00;0.77;;;0.77;;
50161;SDS011;36061;48.116;11.612;2022-09-21T10:13:30;0.80;;;0.80;;
50161;SDS011;36061;48.116;11.612;2022-09-21T10:23:59;2.10;;;0.80;;
50161;SDS011;36061;48.116;11.612;2022-09-21T10:32:02;0.73;;;0.73;;
50161;SDS011;36061;48.116;11.612;2022-09-21T10:34:32;0.97;;;0.80;;
50161;SDS011;36061;48.116;11.612;2022-09-21T10:37:00;3.50;;;1.03;;
50161;SDS011;36061;48.116;11.612;2022-09-21T10:39:30;2.53;;;0.70;;
50161;SDS011;36061;48.116;11.612;2022-09-21T10:44:43;1.17;;;0.80;;
50161;SDS011;36061;48.116;11.612;2022-09-21T10:49:47;1.00;;;0.80;;
50161;SDS011;36061;48.116;11.612;2022-09-21T10:52:20;2.73;;;0.90;;
50161;SDS011;36061;48.116;11.612;2022-09-21T10:54:57;2.00;;;0.80;;
50161;SDS011;36061;48.116;11.612;2022-09-21T10:57:24;1.07;;;0.77;;
50161;SDS011;36061;48.116;11.612;2022-09-21T10:59:52;1.60;;;1.27;;
50161;SDS011;36061;48.116;11.612;2022-09-21T11:04:58;1.37;;;0.70;;
50161;SDS011;36061;48.116;11.612;2022-09-21T11:15:37;2.63;;;1.07;;
50161;SDS011;36061;48.116;11.612;2022-09-21T11:18:29;1.33;;;0.90;;
50161;SDS011;36061;48.116;11.612;2022-09-21T11:21:19;1.87;;;0.90;;
50161;SDS011;36061;48.116;11.612;2022-09-21T11:27:46;1.07;;;0.87;;
50161;SDS011;36061;48.116;11.612;2022-09-21T11:36:29;1.27;;;0.80;;
50161;SDS011;36061;48.116;11.612;2022-09-21T11:45:04;1.87;;;0.90;;
50161;SDS011;36061;48.116;11.612;2022-09-21T11:50:18;1.37;;;0.90;;
50161;SDS011;36061;48.116;11.612;2022-09-21T11:56:17;0.97;;;0.80;;
50161;SDS011;36061;48.116;11.612;2022-09-21T12:04:56;0.90;;;0.77;;
50161;SDS011;36061;48.116;11.612;2022-09-21T12:07:30;1.00;;;0.57;;
50161;SDS011;36061;48.116;11.612;2022-09-21T12:21:36;3.83;;;0.80;;
50161;SDS011;36061;48.116;11.612;2022-09-21T12:24:12;1.63;;;0.77;;
50161;SDS011;36061;48.116;11.612;2022-09-21T12:26:42;1.93;;;0.70;;
50161;SDS011;36061;48.116;11.612;2022-09-21T12:31:45;0.80;;;0.80;;
50161;SDS011;36061;48.116;11.612;2022-09-21T12:34:21;0.60;;;0.60;;
50161;SDS011;36061;48.116;11.612;2022-09-21T12:37:05;1.60;;;0.90;;
50161;SDS011;36061;48.116;11.612;2022-09-21T12:42:41;0.60;;;0.60;;
50161;SDS011;36061;48.116;11.612;2022-09-21T12:45:19;0.50;;;0.50;;
50161;SDS011;36061;48.116;11.612;2022-09-21T12:53:44;0.73;;;0.57;;
50161;SDS011;36061;48.116;11.612;2022-09-21T13:01:44;0.53;;;0.50;;
50161;SDS011;36061;48.116;11.612;2022-09-21T13:09:48;1.63;;;0.63;;
50161;SDS011;36061;48.116;11.612;2022-09-21T13:12:19;0.80;;;0.60;;
50161;SDS011;36061;48.116;11.612;2022-09-21T13:14:49;1.03;;;0.70;;
50161;SDS011;36061;48.116;11.612;2022-09-21T13:17:29;1.50;;;0.70;;
50161;SDS011;36061;48.116;11.612;2022-09-21T13:22:31;1.00;;;0.80;;
50161;SDS011;36061;48.116;11.612;2022-09-21T13:30:35;0.93;;;0.60;;
50161;SDS011;36061;48.116;11.612;2022-09-21T13:33:03;2.20;;;0.73;;
50161;SDS011;36061;48.116;11.612;2022-09-21T13:35:59;0.63;;;0.63;;
50161;SDS011;36061;48.116;11.612;2022-09-21T13:41:03;0.70;;;0.60;;
50161;SDS011;36061;48.116;11.612;2022-09-21T13:51:48;0.93;;;0.77;;
50161;SDS011;36061;48.116;11.612;2022-09-21T13:54:14;1.23;;;0.60;;
50161;SDS011;36061;48.116;11.612;2022-09-21T13:56:41;0.50;;;0.40;;
50161;SDS011;36061;48.116;11.612;2022-09-21T13:59:16;1.23;;;0.60;;
50161;SDS011;36061;48.116;11.612;2022-09-21T14:01:46;1.27;;;0.80;;
50161;SDS011;36061;48.116;11.612;2022-09-21T14:04:15;0.77;;;0.77;;
50161;SDS011;36061;48.116;11.612;2022-09-21T14:06:51;0.90;;;0.80;;
50161;SDS011;36061;48.116;11.612;2022-09-21T14:09:29;0.97;;;0.80;;
50161;SDS011;36061;48.116;11.612;2022-09-21T14:12:02;0.70;;;0.70;;
50161;SDS011;36061;48.116;11.612;2022-09-21T14:14:33;0.80;;;0.70;;
50161;SDS011;36061;48.116;11.612;2022-09-21T14:17:02;1.67;;;0.77;;
50161;SDS011;36061;48.116;11.612;2022-09-21T14:29:42;1.10;;;0.70;;
50161;SDS011;36061;48.116;11.612;2022-09-21T14:32:16;2.20;;;0.80;;
50161;SDS011;36061;48.116;11.612;2022-09-21T14:34:46;0.63;;;0.63;;
50161;SDS011;36061;48.116;11.612;2022-09-21T14:40:01;1.33;;;1.00;;
50161;SDS011;36061;48.116;11.612;2022-09-21T14:42:31;1.20;;;0.57;;
50161;SDS011;36061;48.116;11.612;2022-09-21T14:44:57;3.17;;;0.60;;
50161;SDS011;36061;48.116;11.612;2022-09-21T14:50:23;0.87;;;0.63;;
50161;SDS011;36061;48.116;11.612;2022-09-21T15:06:41;0.93;;;0.70;;
50161;SDS011;36061;48.116;11.612;2022-09-21T15:12:52;0.73;;;0.60;;
50161;SDS011;36061;48.116;11.612;2022-09-21T15:15:39;2.23;;;0.80;;
50161;SDS011;36061;48.116;11.612;2022-09-21T15:18:14;0.67;;;0.57;;
50161;SDS011;36061;48.116;11.612;2022-09-21T15:20:44;0.60;;;0.60;;
50161;SDS011;36061;48.116;11.612;2022-09-21T15:23:32;1.70;;;0.60;;
50161;SDS011;36061;48.116;11.612;2022-09-21T15:26:06;0.87;;;0.70;;
50161;SDS011;36061;48.116;11.612;2022-09-21T15:28:46;1.13;;;0.80;;
50161;SDS011;36061;48.116;11.612;2022-09-21T15:31:14;2.13;;;0.80;;
50161;SDS011;36061;48.116;11.612;2022-09-21T15:33:42;0.63;;;0.63;;
50161;SDS011;36061;48.116;11.612;2022-09-21T15:36:12;1.60;;;0.70;;
50161;SDS011;36061;48.116;11.612;2022-09-21T15:38:46;1.07;;;0.60;;
50161;SDS011;36061;48.116;11.612;2022-09-21T15:41:29;1.20;;;1.10;;
50161;SDS011;36061;48.116;11.612;2022-09-21T15:44:21;1.17;;;0.90;;
50161;SDS011;36061;48.116;11.612;2022-09-21T15:46:51;0.80;;;0.63;;
50161;SDS011;36061;48.116;11.612;2022-09-21T15:49:24;1.07;;;0.80;;
50161;SDS011;36061;48.116;11.612;2022-09-21T15:51:58;1.63;;;1.20;;
50161;SDS011;36061;48.116;11.612;2022-09-21T15:57:21;0.90;;;0.70;;
50161;SDS011;36061;48.116;11.612;2022-09-21T16:00:01;1.13;;;0.70;;
50161;SDS011;36061;48.116;11.612;2022-09-21T16:02:33;1.03;;;0.80;;
50161;SDS011;36061;48.116;11.612;2022-09-21T16:05:04;0.60;;;0.60;;
50161;SDS011;36061;48.116;11.612;2022-09-21T16:07:38;2.30;;;1.00;;
50161;SDS011;36061;48.116;11.612;2022-09-21T16:13:03;0.70;;;0.70;;
50161;SDS011;36061;48.116;11.612;2022-09-21T16:16:01;1.63;;;0.80;;
50161;SDS011;36061;48.116;11.612;2022-09-21T16:18:50;2.30;;;1.03;;
50161;SDS011;36061;48.116;11.612;2022-09-21T16:23:48;0.50;;;0.50;;
50161;SDS011;36061;48.116;11.612;2022-09-21T16:26:17;1.00;;;0.90;;
50161;SDS011;36061;48.116;11.612;2022-09-21T16:28:45;1.23;;;0.93;;
50161;SDS011;36061;48.116;11.612;2022-09-21T16:31:25;0.97;;;0.93;;
50161;SDS011;36061;48.116;11.612;2022-09-21T16:38:55;0.90;;;0.70;;
50161;SDS011;36061;48.116;11.612;2022-09-21T16:41:22;1.30;;;1.03;;
50161;SDS011;36061;48.116;11.612;2022-09-21T16:43:56;1.67;;;0.80;;
50161;SDS011;36061;48.116;11.612;2022-09-21T16:46:22;1.30;;;1.10;;
50161;SDS011;36061;48.116;11.612;2022-09-21T16:48:50;2.13;;;0.93;;
50161;SDS011;36061;48.116;11.612;2022-09-21T16:51:18;1.83;;;1.30;;
50161;SDS011;36061;48.116;11.612;2022-09-21T16:53:49;1.37;;;1.00;;
50161;SDS011;36061;48.116;11.612;2022-09-21T16:56:15;1.23;;;0.90;;
50161;SDS011;36061;48.116;11.612;2022-09-21T16:58:42;1.50;;;1.00;;
50161;SDS011;36061;48.116;11.612;2022-09-21T17:01:10;1.40;;;1.30;;
50161;SDS011;36061;48.116;11.612;2022-09-21T17:03:38;1.67;;;1.30;;
50161;SDS011;36061;48.116;11.612;2022-09-21T17:06:07;2.37;;;1.33;;
50161;SDS011;36061;48.116;11.612;2022-09-21T17:08:44;1.77;;;1.27;;
50161;SDS011;36061;48.116;11.612;2022-09-21T17:11:14;1.47;;;1.10;;
50161;SDS011;36061;48.116;11.612;2022-09-21T17:13:45;2.07;;;1.07;;
50161;SDS011;36061;48.116;11.612;2022-09-21T17:16:12;3.33;;;1.53;;
50161;SDS011;36061;48.116;11.612;2022-09-21T17:18:39;2.90;;;1.20;;
50161;SDS011;36061;48.116;11.612;2022-09-21T17:21:06;1.10;;;1.00;;
50161;SDS011;36061;48.116;11.612;2022-09-21T17:23:33;2.23;;;1.07;;
50161;SDS011;36061;48.116;11.612;2022-09-21T17:26:00;3.43;;;1.10;;
50161;SDS011;36061;48.116;11.612;2022-09-21T17:28:26;1.47;;;1.10;;
50161;SDS011;36061;48.116;11.612;2022-09-21T17:30:52;1.23;;;0.97;;
50161;SDS011;36061;48.116;11.612;2022-09-21T17:33:18;1.83;;;1.20;;
50161;SDS011;36061;48.116;11.612;2022-09-21T17:35:46;1.47;;;1.20;;
50161;SDS011;36061;48.116;11.612;2022-09-21T17:38:15;1.93;;;1.20;;
50161;SDS011;36061;48.116;11.612;2022-09-21T17:40:42;1.63;;;1.20;;
50161;SDS011;36061;48.116;11.612;2022-09-21T17:45:50;2.27;;;1.20;;
50161;SDS011;36061;48.116;11.612;2022-09-21T17:48:40;1.43;;;1.27;;
50161;SDS011;36061;48.116;11.612;2022-09-21T17:51:06;1.40;;;1.30;;
50161;SDS011;36061;48.116;11.612;2022-09-21T17:53:32;4.17;;;1.50;;
50161;SDS011;36061;48.116;11.612;2022-09-21T17:59:01;4.80;;;1.60;;
50161;SDS011;36061;48.116;11.612;2022-09-21T18:01:36;2.30;;;1.73;;
50161;SDS011;36061;48.116;11.612;2022-09-21T18:04:04;4.10;;;2.00;;
50161;SDS011;36061;48.116;11.612;2022-09-21T18:06:31;2.40;;;1.77;;
50161;SDS011;36061;48.116;11.612;2022-09-21T18:08:58;2.73;;;2.13;;
50161;SDS011;36061;48.116;11.612;2022-09-21T18:14:22;2.63;;;2.03;;
50161;SDS011;36061;48.116;11.612;2022-09-21T18:22:50;3.57;;;1.97;;
50161;SDS011;36061;48.116;11.612;2022-09-21T18:25:25;2.63;;;1.93;;
50161;SDS011;36061;48.116;11.612;2022-09-21T18:27:56;4.07;;;2.13;;
50161;SDS011;36061;48.116;11.612;2022-09-21T18:30:23;3.23;;;1.97;;
50161;SDS011;36061;48.116;11.612;2022-09-21T18:41:47;4.73;;;2.83;;
50161;SDS011;36061;48.116;11.612;2022-09-21T18:44:20;4.90;;;3.20;;
50161;SDS011;36061;48.116;11.612;2022-09-21T18:55:00;9.17;;;3.70;;
50161;SDS011;36061;48.116;11.612;2022-09-21T18:57:26;6.50;;;3.60;;
50161;SDS011;36061;48.116;11.612;2022-09-21T18:59:56;5.67;;;3.67;;
50161;SDS011;36061;48.116;11.612;2022-09-21T19:02:23;7.80;;;3.53;;
50161;SDS011;36061;48.116;11.612;2022-09-21T19:04:49;7.60;;;3.90;;
50161;SDS011;36061;48.116;11.612;2022-09-21T19:07:21;7.23;;;3.60;;
50161;SDS011;36061;48.116;11.612;2022-09-21T19:15:44;6.27;;;3.40;;